Time;durP1;ratioP1;P1;durP2;ratioP2;P2;SDS_P1;SDS_P2;PMS_P1;PMS_P2;Temp;Humidity;BMP_temperature;BMP_pressure;BME280_temperature;BME280_humidity;BME280_pressure;Samples;Min_cycle;Max_cycle;Signal;HPM_P1;HPM_P2
2022/01/09 00:01:50;;;;;;;12.77;9.07;;;17.90;42.60;;;;;;5018422;28;20192;-73
2022/01/09 00:04:17;;;;;;;11.15;8.98;;;17.90;42.70;;;;;;5018192;28;20204;-72
2022/01/09 00:06:44;;;;;;;10.63;8.43;;;17.90;42.60;;;;;;5018032;28;20208;-73
2022/01/09 00:09:13;;;;;;;12.75;8.80;;;17.90;42.80;;;;;;5018092;28;20196;-72
2022/01/09 00:11:40;;;;;;;12.05;8.65;;;17.80;42.80;;;;;;5018055;28;20228;-71
2022/01/09 00:14:07;;;;;;;13.70;8.52;;;17.80;42.70;;;;;;5017746;28;20287;-71
2022/01/09 00:16:34;;;;;;;9.75;7.68;;;17.80;42.80;;;;;;5017899;28;20204;-73
2022/01/09 00:19:01;;;;;;;9.57;8.35;;;17.80;42.80;;;;;;5018017;28;20231;-72
2022/01/09 00:21:28;;;;;;;9.60;7.95;;;17.80;42.90;;;;;;5018019;28;20679;-72
2022/01/09 00:23:56;;;;;;;10.38;8.18;;;17.70;42.80;;;;;;5017769;28;20223;-72
2022/01/09 00:26:24;;;;;;;11.30;7.38;;;17.70;43.00;;;;;;5017696;28;20200;-70
2022/01/09 00:28:51;;;;;;;10.10;7.75;;;17.70;43.10;;;;;;5017413;28;20303;-72
2022/01/09 00:31:19;;;;;;;10.90;7.90;;;17.70;43.00;;;;;;5017193;28;20807;-73
2022/01/09 00:33:46;;;;;;;9.73;8.10;;;17.70;43.10;;;;;;5036768;28;20290;-74
2022/01/09 00:36:14;;;;;;;11.07;8.63;;;17.70;43.20;;;;;;5017195;28;20658;-70
2022/01/09 00:38:41;;;;;;;9.65;7.32;;;17.70;43.20;;;;;;5017378;28;20223;-73
2022/01/09 00:41:08;;;;;;;9.60;8.30;;;17.70;43.30;;;;;;5017465;28;20238;-74
2022/01/09 00:43:36;;;;;;;8.57;7.00;;;17.70;43.40;;;;;;5017478;28;20238;-72
2022/01/09 00:46:03;;;;;;;9.98;7.07;;;17.60;43.50;;;;;;5017238;28;20211;-72
2022/01/09 00:48:30;;;;;;;8.30;7.28;;;17.60;43.20;;;;;;5017136;28;20216;-72
2022/01/09 00:50:58;;;;;;;11.02;7.22;;;17.60;43.40;;;;;;5016862;28;20248;-73
2022/01/09 00:53:26;;;;;;;9.70;7.20;;;17.60;43.40;;;;;;5017096;28;20657;-72
2022/01/09 00:55:54;;;;;;;8.15;6.93;;;17.60;43.60;;;;;;5016984;28;20215;-72
2022/01/09 00:58:21;;;;;;;9.07;7.10;;;17.50;43.40;;;;;;5016728;28;20310;-72
2022/01/09 01:00:49;;;;;;;9.10;6.88;;;17.50;43.70;;;;;;5016774;28;20224;-73
2022/01/09 01:03:16;;;;;;;8.38;6.68;;;17.50;43.50;;;;;;5016701;28;20196;-71
2022/01/09 01:05:43;;;;;;;9.77;7.03;;;17.50;43.60;;;;;;5016156;28;20575;-70
2022/01/09 01:08:10;;;;;;;8.65;6.90;;;17.50;43.60;;;;;;5016537;28;20595;-71
2022/01/09 01:10:37;;;;;;;8.65;6.32;;;17.50;43.70;;;;;;5016461;28;20238;-74
2022/01/09 01:13:05;;;;;;;7.82;6.05;;;17.50;43.60;;;;;;5016586;28;20200;-73
2022/01/09 01:15:32;;;;;;;7.90;5.90;;;17.50;43.60;;;;;;5016398;28;20202;-72
2022/01/09 01:18:00;;;;;;;7.55;6.45;;;17.40;43.60;;;;;;5016228;28;20224;-72
2022/01/09 01:20:28;;;;;;;7.25;6.03;;;17.40;43.70;;;;;;5034092;28;20184;-72
2022/01/09 01:22:58;;;;;;;7.05;6.35;;;17.40;43.70;;;;;;5016298;28;20204;-72
2022/01/09 01:25:34;;;;;;;7.55;6.40;;;17.40;43.70;;;;;;5152333;27;20588;-51
2022/01/09 01:28:01;;;;;;;6.53;5.60;;;17.40;43.90;;;;;;5157299;27;20779;-51
2022/01/09 01:30:29;;;;;;;7.10;6.18;;;17.40;43.70;;;;;;5172772;27;20189;-51
2022/01/09 01:32:56;;;;;;;7.57;5.95;;;17.40;43.70;;;;;;5154153;27;20184;-51
2022/01/09 01:35:23;;;;;;;6.20;5.60;;;17.30;43.60;;;;;;5172771;27;20180;-51
2022/01/09 01:37:51;;;;;;;7.63;5.60;;;17.30;43.60;;;;;;5172570;27;20287;-51
2022/01/09 01:40:19;;;;;;;6.72;5.93;;;17.30;43.60;;;;;;5154038;27;20547;-51
2022/01/09 01:42:48;;;;;;;9.55;6.22;;;17.30;44.30;;;;;;5172813;27;20651;-51
2022/01/09 01:45:15;;;;;;;7.25;5.47;;;17.30;43.60;;;;;;5153878;27;20215;-51
2022/01/09 01:47:42;;;;;;;6.05;5.45;;;17.30;43.60;;;;;;5172487;27;20194;-51
2022/01/09 01:50:11;;;;;;;6.18;5.43;;;17.30;43.70;;;;;;5154082;27;20244;-51
2022/01/09 01:52:42;;;;;;;7.05;5.45;;;17.30;43.70;;;;;;5153983;27;20611;-51
2022/01/09 01:55:10;;;;;;;5.88;5.28;;;17.30;43.60;;;;;;5172692;27;20250;-51
2022/01/09 01:57:39;;;;;;;6.25;5.07;;;17.30;43.60;;;;;;5154476;27;20608;-51
2022/01/09 02:00:10;;;;;;;7.60;6.22;;;17.30;43.70;;;;;;5172932;27;20239;-51
2022/01/09 02:02:37;;;;;;;6.30;5.50;;;17.30;43.80;;;;;;5172921;27;20213;-51
2022/01/09 02:05:05;;;;;;;5.57;5.07;;;17.20;43.60;;;;;;5172469;27;20222;-51
2022/01/09 02:07:32;;;;;;;5.55;5.05;;;17.30;43.70;;;;;;5153761;27;20527;-51
2022/01/09 02:09:59;;;;;;;6.03;5.43;;;17.20;43.60;;;;;;5172735;27;20192;-51
2022/01/09 02:12:26;;;;;;;6.95;5.70;;;17.20;43.70;;;;;;5172321;27;20587;-51
2022/01/09 02:14:53;;;;;;;6.80;5.38;;;17.20;43.70;;;;;;5172150;27;20190;-51
2022/01/09 02:17:21;;;;;;;6.25;5.30;;;17.20;43.60;;;;;;5172382;27;20210;-51
2022/01/09 02:19:52;;;;;;;5.25;4.72;;;17.20;43.70;;;;;;5153484;27;20260;-51
2022/01/09 02:22:19;;;;;;;5.53;4.90;;;17.20;43.70;;;;;;5171950;27;20233;-51
2022/01/09 02:24:47;;;;;;;5.50;4.85;;;17.20;43.70;;;;;;5152781;27;20235;-51
2022/01/09 02:27:14;;;;;;;5.70;5.10;;;17.10;43.70;;;;;;5153195;27;20561;-51
2022/01/09 02:29:41;;;;;;;5.68;4.78;;;17.10;43.90;;;;;;5171803;27;20260;-51
2022/01/09 02:32:09;;;;;;;5.28;4.78;;;17.10;43.90;;;;;;5171984;27;20191;-51
2022/01/09 02:34:36;;;;;;;5.07;4.57;;;17.10;43.80;;;;;;5152794;27;20651;-51
2022/01/09 02:37:05;;;;;;;5.13;4.63;;;17.10;43.90;;;;;;5157068;27;20217;-51
2022/01/09 02:39:32;;;;;;;5.18;4.60;;;17.10;43.80;;;;;;5157422;27;20641;-51
2022/01/09 02:41:59;;;;;;;6.20;4.78;;;17.10;43.90;;;;;;5157398;27;20656;-51
2022/01/09 02:44:26;;;;;;;5.55;4.82;;;17.10;43.90;;;;;;5138735;27;20244;-51
2022/01/09 02:47:01;;;;;;;4.85;4.20;;;17.10;44.50;;;;;;5138704;27;20212;-51
2022/01/09 02:49:30;;;;;;;5.93;4.38;;;17.10;44.60;;;;;;5157552;27;20393;-51
2022/01/09 02:51:58;;;;;;;4.97;4.45;;;17.00;43.90;;;;;;5138639;27;20202;-51
2022/01/09 02:57:10;;;;;;;4.85;4.35;;;17.00;44.00;;;;;;5157535;27;20183;-51
2022/01/09 02:59:37;;;;;;;4.60;3.90;;;17.00;44.10;;;;;;5156986;27;20280;-51
2022/01/09 03:02:05;;;;;;;4.90;4.40;;;17.00;44.00;;;;;;5157252;27;20234;-51
2022/01/09 03:04:32;;;;;;;5.28;4.57;;;17.00;44.40;;;;;;5138312;27;20279;-51
2022/01/09 03:06:59;;;;;;;5.40;4.55;;;17.00;44.10;;;;;;5156868;27;20220;-51
2022/01/09 03:09:28;;;;;;;5.32;4.15;;;17.00;44.20;;;;;;5157053;27;20603;-51
2022/01/09 03:11:55;;;;;;;4.63;4.00;;;16.90;44.30;;;;;;5138306;27;20200;-52
2022/01/09 03:14:22;;;;;;;5.70;4.40;;;16.90;44.20;;;;;;5138169;27;20192;-51
2022/01/09 03:16:49;;;;;;;5.15;4.40;;;16.90;44.10;;;;;;5156777;27;20540;-51
2022/01/09 03:19:17;;;;;;;4.55;4.10;;;16.90;45.10;;;;;;5156883;27;20302;-51
2022/01/09 03:21:44;;;;;;;5.22;4.68;;;16.90;44.60;;;;;;5138184;27;20199;-51
2022/01/09 03:24:11;;;;;;;4.50;4.10;;;16.90;44.50;;;;;;5156596;27;20212;-51
2022/01/09 03:26:39;;;;;;;4.40;4.00;;;16.90;44.20;;;;;;5156633;27;20207;-51
2022/01/09 03:29:07;;;;;;;4.47;4.07;;;16.90;44.50;;;;;;5156651;27;20258;-51
2022/01/09 03:31:34;;;;;;;4.47;3.80;;;16.90;44.40;;;;;;5156758;27;20208;-51
2022/01/09 03:34:01;;;;;;;4.53;4.13;;;16.90;44.30;;;;;;5137763;27;20196;-51
2022/01/09 03:36:27;;;;;;;4.38;3.97;;;16.80;44.30;;;;;;5156342;27;20219;-51
2022/01/09 03:38:54;;;;;;;4.35;3.65;;;16.80;44.50;;;;;;5156398;27;20211;-51
2022/01/09 03:41:22;;;;;;;4.07;3.67;;;16.90;44.50;;;;;;5156258;27;20214;-51
2022/01/09 03:43:50;;;;;;;4.28;3.88;;;16.80;44.50;;;;;;5137479;27;20196;-51
2022/01/09 03:46:18;;;;;;;4.15;3.75;;;16.80;44.30;;;;;;5155998;27;20648;-51
2022/01/09 03:48:45;;;;;;;5.75;4.28;;;16.80;44.60;;;;;;5155299;27;20280;-51
2022/01/09 03:51:12;;;;;;;4.28;3.97;;;16.80;44.50;;;;;;5156315;27;20614;-51
2022/01/09 03:53:39;;;;;;;4.63;4.13;;;16.80;44.50;;;;;;5137391;27;20227;-51
2022/01/09 03:56:06;;;;;;;4.10;3.58;;;16.80;44.50;;;;;;5137873;27;20215;-51
2022/01/09 03:58:36;;;;;;;4.05;3.65;;;16.80;44.50;;;;;;5137321;27;20211;-51
2022/01/09 04:01:06;;;;;;;4.18;3.78;;;16.80;44.40;;;;;;5137378;27;20662;-51
2022/01/09 04:03:33;;;;;;;3.42;3.03;;;16.80;44.40;;;;;;5137305;27;20660;-51
2022/01/09 04:06:01;;;;;;;3.55;3.20;;;16.80;44.30;;;;;;5155727;27;20210;-51
2022/01/09 04:08:28;;;;;;;4.13;3.55;;;16.80;44.30;;;;;;5156007;27;20224;-51
2022/01/09 04:10:56;;;;;;;4.03;3.63;;;16.80;44.40;;;;;;5136971;27;20192;-51
2022/01/09 04:13:23;;;;;;;3.70;3.30;;;16.80;44.40;;;;;;5155909;27;20192;-50
2022/01/09 04:15:50;;;;;;;3.85;3.55;;;16.80;44.50;;;;;;5136986;27;20188;-50
2022/01/09 04:18:21;;;;;;;3.97;3.58;;;16.70;44.60;;;;;;5136818;27;20207;-51
2022/01/09 04:20:49;;;;;;;3.67;3.33;;;16.70;44.60;;;;;;5155546;27;20716;-51
2022/01/09 04:23:16;;;;;;;3.70;3.35;;;16.70;44.60;;;;;;5136616;27;20200;-51
2022/01/09 04:25:44;;;;;;;4.95;3.17;;;16.70;44.50;;;;;;5155429;27;20287;-50
2022/01/09 04:28:11;;;;;;;3.40;3.10;;;16.70;44.50;;;;;;5155727;27;20260;-51
2022/01/09 04:30:38;;;;;;;2.83;2.63;;;16.70;44.50;;;;;;5155374;27;20236;-51
2022/01/09 04:33:06;;;;;;;3.28;2.97;;;16.70;44.50;;;;;;5136745;27;20196;-51
2022/01/09 04:35:35;;;;;;;3.50;2.80;;;16.70;44.40;;;;;;5136709;27;20589;-51
2022/01/09 04:38:03;;;;;;;3.30;3.00;;;16.70;44.40;;;;;;5155724;27;20216;-51
2022/01/09 04:40:30;;;;;;;3.33;3.03;;;16.70;44.40;;;;;;5136648;27;20627;-50
2022/01/09 04:43:00;;;;;;;3.30;3.08;;;16.80;44.50;;;;;;5136636;27;20702;-51
2022/01/09 04:45:28;;;;;;;3.40;3.10;;;16.80;44.30;;;;;;5155315;27;20247;-51
2022/01/09 04:47:59;;;;;;;2.85;2.65;;;16.80;44.50;;;;;;5136406;27;20310;-51
2022/01/09 04:50:29;;;;;;;3.28;2.97;;;16.80;44.40;;;;;;5155255;27;20176;-51
2022/01/09 04:53:04;;;;;;;3.25;3.05;;;16.90;44.50;;;;;;5136611;27;20204;-51
2022/01/09 04:55:31;;;;;;;3.60;3.30;;;16.90;44.40;;;;;;5136534;27;20191;-51
2022/01/09 04:57:59;;;;;;;4.53;4.07;;;17.00;45.00;;;;;;5154843;27;20210;-51
2022/01/09 05:00:26;;;;;;;3.60;3.17;;;17.00;44.30;;;;;;5154917;27;20265;-51
2022/01/09 05:02:53;;;;;;;3.72;3.42;;;17.10;44.10;;;;;;5136396;27;20235;-52
2022/01/09 05:05:20;;;;;;;3.05;2.75;;;17.10;44.10;;;;;;5155063;27;20212;-52
2022/01/09 05:07:47;;;;;;;3.47;3.17;;;17.10;43.80;;;;;;5136422;27;20245;-51
2022/01/09 05:10:15;;;;;;;3.40;2.90;;;17.20;44.00;;;;;;5155001;27;20200;-51
2022/01/09 05:12:43;;;;;;;3.30;3.00;;;17.20;43.70;;;;;;5155071;27;20319;-51
2022/01/09 05:15:13;;;;;;;3.53;3.22;;;17.20;43.70;;;;;;5154926;27;20180;-51
2022/01/09 05:17:40;;;;;;;3.80;3.20;;;17.20;43.60;;;;;;5155620;27;20188;-52
2022/01/09 05:20:08;;;;;;;3.40;3.10;;;17.20;43.70;;;;;;5136499;27;20219;-52
2022/01/09 05:22:35;;;;;;;3.53;3.22;;;17.20;43.60;;;;;;5154931;27;20606;-51
2022/01/09 05:25:06;;;;;;;3.42;3.13;;;17.20;43.60;;;;;;5136216;27;20681;-51
2022/01/09 05:27:35;;;;;;;3.33;3.03;;;17.20;43.70;;;;;;5136437;27;20596;-51
2022/01/09 05:30:02;;;;;;;3.33;2.88;;;17.20;43.70;;;;;;5154630;27;20188;-53
2022/01/09 05:32:29;;;;;;;3.05;2.85;;;17.30;43.70;;;;;;5155091;27;20235;-51
2022/01/09 05:34:56;;;;;;;2.90;2.70;;;17.30;43.60;;;;;;5135986;27;20534;-51
2022/01/09 05:37:23;;;;;;;3.20;2.90;;;17.30;43.60;;;;;;5136001;27;20227;-51
2022/01/09 05:39:51;;;;;;;3.38;2.92;;;17.30;43.40;;;;;;5154761;27;20227;-51
2022/01/09 05:42:18;;;;;;;3.10;2.80;;;17.30;43.20;;;;;;5135743;27;20199;-51
2022/01/09 05:44:47;;;;;;;3.00;2.80;;;17.40;43.30;;;;;;5154398;27;20231;-51
2022/01/09 05:47:14;;;;;;;3.17;2.88;;;17.40;43.30;;;;;;5135828;27;20188;-51
2022/01/09 05:49:42;;;;;;;2.92;2.70;;;17.40;43.20;;;;;;5154191;27;20703;-51
2022/01/09 05:52:09;;;;;;;3.38;2.83;;;17.40;43.10;;;;;;5154674;27;20559;-51
2022/01/09 05:54:36;;;;;;;2.85;2.65;;;17.40;43.10;;;;;;5136352;27;20220;-51
2022/01/09 05:57:04;;;;;;;2.92;2.70;;;17.40;42.90;;;;;;5154359;27;20195;-51
2022/01/09 05:59:31;;;;;;;2.95;2.75;;;17.50;43.00;;;;;;5154322;27;20199;-51
2022/01/09 06:02:00;;;;;;;2.67;2.47;;;17.50;42.90;;;;;;5154391;27;20212;-51
2022/01/09 06:04:28;;;;;;;3.00;2.80;;;17.50;42.60;;;;;;5135739;27;20192;-51
2022/01/09 06:06:55;;;;;;;3.55;2.60;;;17.50;42.60;;;;;;5135408;27;20215;-51
2022/01/09 06:09:22;;;;;;;2.83;2.63;;;17.60;42.80;;;;;;5135578;27;20216;-51
2022/01/09 06:11:49;;;;;;;2.90;2.70;;;17.60;42.70;;;;;;5157290;27;20243;-51
2022/01/09 06:14:16;;;;;;;2.60;2.40;;;17.60;42.50;;;;;;5158229;27;20276;-51
2022/01/09 06:16:44;;;;;;;3.40;2.90;;;17.60;42.60;;;;;;5139435;27;20192;-51
2022/01/09 06:19:13;;;;;;;2.72;2.53;;;17.60;42.50;;;;;;5157813;27;20756;-51
2022/01/09 06:21:40;;;;;;;2.75;2.55;;;17.70;42.40;;;;;;5157700;27;20183;-51
2022/01/09 06:24:07;;;;;;;2.90;2.60;;;17.70;42.40;;;;;;5157679;27;20240;-51
2022/01/09 06:26:34;;;;;;;2.58;2.38;;;17.60;42.10;;;;;;5157668;27;20204;-51
2022/01/09 06:29:01;;;;;;;2.90;2.70;;;17.70;42.40;;;;;;5139099;27;20208;-51
2022/01/09 06:31:29;;;;;;;3.03;2.40;;;17.70;42.30;;;;;;5139237;27;20213;-51
2022/01/09 06:33:57;;;;;;;2.50;2.30;;;17.70;42.20;;;;;;5158025;27;20610;-51
2022/01/09 06:36:25;;;;;;;2.75;2.55;;;17.70;42.20;;;;;;5157842;27;20184;-51
2022/01/09 06:38:53;;;;;;;2.63;2.42;;;17.70;42.10;;;;;;5138870;27;20208;-51
2022/01/09 06:41:20;;;;;;;2.50;2.30;;;17.70;42.10;;;;;;5157890;27;20192;-51
2022/01/09 06:43:47;;;;;;;2.70;2.50;;;17.70;42.10;;;;;;5157239;27;20192;-51
2022/01/09 06:46:14;;;;;;;2.65;2.42;;;17.70;42.10;;;;;;5157717;27;20211;-51
2022/01/09 06:48:42;;;;;;;2.55;2.35;;;17.80;42.20;;;;;;5157497;27;20276;-51
2022/01/09 06:51:10;;;;;;;2.53;2.33;;;17.70;42.10;;;;;;5139559;27;20244;-51
2022/01/09 06:53:38;;;;;;;2.25;2.10;;;17.80;42.10;;;;;;5138700;27;20248;-51
2022/01/09 06:56:06;;;;;;;2.47;2.28;;;17.70;42.10;;;;;;5157374;27;20187;-51
2022/01/09 06:58:33;;;;;;;2.92;2.58;;;17.80;41.90;;;;;;5157420;27;20200;-51
2022/01/09 07:01:00;;;;;;;2.50;2.30;;;17.80;42.10;;;;;;5157269;27;20668;-51
2022/01/09 07:03:27;;;;;;;2.50;2.30;;;17.80;42.10;;;;;;5157257;27;20678;-51
2022/01/09 07:05:55;;;;;;;2.30;2.10;;;17.80;42.10;;;;;;5138302;27;20211;-51
2022/01/09 07:08:21;;;;;;;2.50;2.30;;;17.80;41.80;;;;;;5156866;27;20247;-51
2022/01/09 07:10:50;;;;;;;2.03;1.90;;;17.80;41.80;;;;;;5157098;27;20264;-51
2022/01/09 07:13:17;;;;;;;2.45;2.25;;;17.80;41.90;;;;;;5138279;27;20720;-51
2022/01/09 07:15:44;;;;;;;2.40;2.20;;;17.80;42.00;;;;;;5157103;27;20705;-51
2022/01/09 07:18:11;;;;;;;3.30;2.25;;;17.80;42.00;;;;;;5156836;27;20224;-51
2022/01/09 07:20:38;;;;;;;2.00;1.90;;;17.80;42.10;;;;;;5157233;27;20590;-51
2022/01/09 07:23:06;;;;;;;2.20;2.10;;;17.80;42.10;;;;;;5138272;27;20551;-51
2022/01/09 07:25:33;;;;;;;2.45;1.92;;;17.80;42.10;;;;;;5156709;27;20258;-51
2022/01/09 07:28:02;;;;;;;2.40;2.20;;;17.80;42.10;;;;;;5156677;27;20211;-51
2022/01/09 07:30:30;;;;;;;2.20;2.00;;;17.80;42.10;;;;;;5138201;27;20188;-51
2022/01/09 07:32:57;;;;;;;2.15;2.05;;;17.80;42.10;;;;;;5156630;27;20194;-52
2022/01/09 07:35:25;;;;;;;2.47;2.28;;;17.80;42.20;;;;;;5156583;27;20259;-51
2022/01/09 07:37:52;;;;;;;1.95;1.85;;;17.80;42.10;;;;;;5156680;27;20223;-51
2022/01/09 07:40:20;;;;;;;2.25;2.05;;;17.80;42.20;;;;;;5137983;27;20203;-51
2022/01/09 07:42:47;;;;;;;1.95;1.85;;;17.80;42.20;;;;;;5156862;27;20279;-51
2022/01/09 07:45:16;;;;;;;2.03;1.90;;;17.80;42.10;;;;;;5156833;27;20199;-51
2022/01/09 07:47:43;;;;;;;2.22;2.13;;;17.80;42.20;;;;;;5156580;27;20215;-51
2022/01/09 07:50:11;;;;;;;2.22;2.03;;;17.80;42.10;;;;;;5156241;27;20717;-51
2022/01/09 07:52:38;;;;;;;2.63;2.17;;;17.80;42.10;;;;;;5137398;27;20291;-51
2022/01/09 07:55:06;;;;;;;2.40;2.20;;;17.80;42.30;;;;;;5156194;27;20577;-51
2022/01/09 07:57:34;;;;;;;2.38;2.10;;;17.80;42.10;;;;;;5156388;27;20203;-51
2022/01/09 08:00:03;;;;;;;2.30;2.08;;;17.80;42.10;;;;;;5138567;27;20199;-51
2022/01/09 08:02:41;;;;;;;2.38;2.17;;;17.80;42.10;;;;;;5156079;27;20688;-51
2022/01/09 08:05:09;;;;;;;2.40;1.98;;;17.80;42.60;;;;;;5155700;27;20198;-51
2022/01/09 08:07:36;;;;;;;2.20;2.00;;;17.80;41.90;;;;;;5155556;27;20188;-51
2022/01/09 08:10:04;;;;;;;2.45;2.20;;;17.80;42.00;;;;;;5155872;27;20188;-51
2022/01/09 08:12:31;;;;;;;2.70;2.20;;;17.80;42.00;;;;;;5155768;27;20215;-51
2022/01/09 08:14:58;;;;;;;2.58;2.38;;;17.80;42.10;;;;;;5155739;27;20188;-51
2022/01/09 08:17:25;;;;;;;2.28;2.08;;;17.80;42.10;;;;;;5155678;27;20187;-51
2022/01/09 08:19:54;;;;;;;2.08;1.98;;;17.80;42.00;;;;;;5136805;27;20701;-51
2022/01/09 08:22:28;;;;;;;2.03;1.83;;;17.90;42.20;;;;;;5155713;27;20196;-51
2022/01/09 08:24:55;;;;;;;2.30;2.10;;;17.80;42.20;;;;;;5205564;22;20777;-64
2022/01/09 08:27:22;;;;;;;1.90;1.70;;;17.90;42.00;;;;;;5095262;28;20209;-64
2022/01/09 08:29:49;;;;;;;2.00;1.90;;;17.90;42.00;;;;;;5095069;28;20259;-64
2022/01/09 08:32:17;;;;;;;1.98;1.80;;;17.90;41.70;;;;;;5113352;28;20192;-64
2022/01/09 08:34:44;;;;;;;2.15;1.95;;;17.90;41.70;;;;;;5112967;28;20276;-64
2022/01/09 08:37:12;;;;;;;2.03;1.92;;;17.90;41.50;;;;;;5113540;28;20205;-64
2022/01/09 08:39:39;;;;;;;2.20;2.00;;;18.00;41.50;;;;;;5113327;28;20644;-64
2022/01/09 08:42:07;;;;;;;2.28;2.08;;;18.00;41.40;;;;;;5095106;28;20199;-64
2022/01/09 08:44:34;;;;;;;2.33;2.13;;;18.00;41.50;;;;;;5113393;28;20192;-64
2022/01/09 08:47:01;;;;;;;2.72;2.10;;;18.10;41.60;;;;;;5113587;28;20217;-64
2022/01/09 08:49:28;;;;;;;3.17;2.10;;;18.10;41.50;;;;;;5112987;28;20200;-64
2022/01/09 08:51:56;;;;;;;4.82;2.17;;;18.10;41.40;;;;;;5113517;28;20281;-64
2022/01/09 08:54:24;;;;;;;2.58;2.00;;;18.10;41.40;;;;;;5113159;28;20194;-65
2022/01/09 08:56:52;;;;;;;2.05;1.83;;;18.20;42.00;;;;;;5113111;28;20246;-64
2022/01/09 08:59:19;;;;;;;5.05;2.10;;;18.20;41.50;;;;;;5113399;28;20558;-64
2022/01/09 09:01:47;;;;;;;2.58;2.00;;;18.20;41.40;;;;;;5095609;28;20236;-64
2022/01/09 09:04:14;;;;;;;1.88;1.70;;;18.20;41.40;;;;;;5095116;28;20200;-63
2022/01/09 09:06:41;;;;;;;2.00;1.90;;;18.20;41.30;;;;;;5113264;28;20254;-64
2022/01/09 09:09:09;;;;;;;2.88;2.00;;;18.20;41.80;;;;;;5113457;28;20205;-64
2022/01/09 09:11:37;;;;;;;2.63;1.92;;;18.30;41.60;;;;;;5114166;28;20741;-64
2022/01/09 09:14:06;;;;;;;1.98;1.88;;;18.30;41.60;;;;;;5115861;28;20227;-64
2022/01/09 09:16:33;;;;;;;2.67;1.92;;;18.30;41.20;;;;;;5116041;28;20186;-64
2022/01/09 09:19:00;;;;;;;2.78;2.10;;;18.30;41.10;;;;;;5095235;28;20200;-64
2022/01/09 09:21:28;;;;;;;3.75;1.95;;;18.30;41.40;;;;;;5113994;28;20421;-64
2022/01/09 09:23:55;;;;;;;2.28;1.98;;;18.30;41.50;;;;;;5095236;28;20221;-64
2022/01/09 09:26:22;;;;;;;4.05;2.58;;;18.30;42.00;;;;;;5113216;28;20225;-64
2022/01/09 09:28:51;;;;;;;2.55;2.28;;;18.30;41.30;;;;;;5094879;28;20736;-64
2022/01/09 09:31:18;;;;;;;2.70;2.38;;;18.30;41.40;;;;;;5113042;28;20213;-64
2022/01/09 09:33:45;;;;;;;4.30;2.13;;;18.30;41.40;;;;;;5094936;28;20284;-64
2022/01/09 09:36:12;;;;;;;3.47;2.45;;;18.40;41.40;;;;;;5094721;28;20204;-64
2022/01/09 09:38:39;;;;;;;2.33;1.85;;;18.40;41.50;;;;;;5094785;28;20200;-64
2022/01/09 09:41:06;;;;;;;2.55;2.13;;;18.40;41.40;;;;;;5113185;28;20237;-64
2022/01/09 09:43:33;;;;;;;3.55;2.22;;;18.40;41.40;;;;;;5094679;28;20671;-64
2022/01/09 09:46:02;;;;;;;2.63;2.20;;;18.40;41.40;;;;;;5096415;28;20278;-65
2022/01/09 09:48:29;;;;;;;3.00;2.35;;;18.40;41.30;;;;;;5117242;28;20526;-64
2022/01/09 09:50:56;;;;;;;3.13;1.95;;;18.40;41.10;;;;;;5117390;28;20236;-64
2022/01/09 09:53:24;;;;;;;2.35;2.13;;;18.40;41.60;;;;;;5098558;28;20193;-64
2022/01/09 09:55:53;;;;;;;2.63;2.30;;;18.40;41.20;;;;;;5116642;28;20716;-64
2022/01/09 09:58:22;;;;;;;2.85;1.98;;;18.40;42.00;;;;;;5116666;28;20196;-64
2022/01/09 10:00:53;;;;;;;2.88;2.22;;;18.40;41.40;;;;;;5098461;28;20270;-64
2022/01/09 10:03:29;;;;;;;4.13;2.10;;;18.40;41.40;;;;;;5098135;28;20255;-64
2022/01/09 10:05:56;;;;;;;3.03;2.28;;;18.50;41.40;;;;;;5098285;28;20212;-64
2022/01/09 10:08:23;;;;;;;4.20;2.08;;;18.50;41.40;;;;;;5098113;28;20653;-64
2022/01/09 10:10:51;;;;;;;4.22;2.47;;;18.50;41.20;;;;;;5098079;28;20251;-64
2022/01/09 10:13:19;;;;;;;2.72;2.30;;;18.50;41.30;;;;;;5116213;28;20239;-64
2022/01/09 10:15:47;;;;;;;2.63;2.22;;;18.50;41.10;;;;;;5098079;28;20250;-64
2022/01/09 10:18:15;;;;;;;4.93;2.38;;;18.60;41.10;;;;;;5097730;28;20613;-64
2022/01/09 10:20:43;;;;;;;2.97;2.20;;;18.60;41.10;;;;;;5097840;28;20262;-64
2022/01/09 10:23:11;;;;;;;3.20;2.40;;;18.60;41.00;;;;;;5116151;28;20189;-64
2022/01/09 10:25:38;;;;;;;2.85;2.00;;;18.60;41.00;;;;;;5116007;28;20609;-64
2022/01/09 10:28:07;;;;;;;3.40;2.40;;;18.60;40.80;;;;;;5097684;28;20226;-64
2022/01/09 10:30:36;;;;;;;2.67;2.20;;;18.60;40.70;;;;;;5097633;28;20676;-64
2022/01/09 10:33:06;;;;;;;5.15;2.40;;;18.60;40.60;;;;;;5097609;28;20190;-64
2022/01/09 10:35:38;;;;;;;3.65;2.28;;;18.60;40.50;;;;;;5097644;28;20193;-64
2022/01/09 10:38:25;;;;;;;4.75;2.53;;;18.70;40.70;;;;;;5115902;28;20260;-64
2022/01/09 10:40:54;;;;;;;3.33;2.20;;;18.70;40.70;;;;;;5097385;28;20316;-64
2022/01/09 10:43:22;;;;;;;4.57;2.38;;;18.70;40.90;;;;;;5097475;28;20258;-64
2022/01/09 10:45:56;;;;;;;2.45;2.15;;;18.70;40.70;;;;;;5115528;28;20279;-64
2022/01/09 10:48:24;;;;;;;3.67;2.05;;;18.70;40.60;;;;;;5115661;28;20746;-64
2022/01/09 10:50:52;;;;;;;2.63;2.00;;;18.80;40.40;;;;;;5115675;28;20578;-64
2022/01/09 10:53:26;;;;;;;3.17;2.03;;;18.80;40.60;;;;;;5097089;28;20571;-64
2022/01/09 10:56:04;;;;;;;2.75;2.28;;;18.80;40.50;;;;;;5115331;28;20181;-64
2022/01/09 10:58:34;;;;;;;3.53;2.45;;;18.80;40.50;;;;;;5115858;28;20272;-64
2022/01/09 11:01:13;;;;;;;3.90;2.20;;;18.80;40.50;;;;;;5097087;28;20266;-64
2022/01/09 11:03:41;;;;;;;2.58;2.03;;;18.80;40.60;;;;;;5115320;28;20283;-64
2022/01/09 11:06:08;;;;;;;3.08;2.38;;;18.80;40.70;;;;;;5096990;28;20197;-64
2022/01/09 11:08:37;;;;;;;3.63;2.30;;;18.80;40.70;;;;;;5096948;28;20199;-64
2022/01/09 11:11:08;;;;;;;4.78;2.50;;;18.80;40.90;;;;;;5096671;28;20232;-64
2022/01/09 11:13:36;;;;;;;2.75;2.30;;;18.80;41.10;;;;;;5096801;28;20200;-65
2022/01/09 11:18:48;;;;;;;3.83;1.90;;;18.80;40.90;;;;;;5115244;28;20185;-64
2022/01/09 11:21:16;;;;;;;4.00;2.30;;;18.80;40.50;;;;;;5096702;28;20217;-64
2022/01/09 11:23:54;;;;;;;3.35;1.90;;;18.80;40.30;;;;;;5096554;28;20720;-64
2022/01/09 11:26:21;;;;;;;2.85;2.15;;;18.80;40.50;;;;;;5114717;28;20205;-64
2022/01/09 11:28:49;;;;;;;3.20;2.10;;;18.80;40.30;;;;;;5115133;28;20276;-65
2022/01/09 11:31:23;;;;;;;2.78;2.03;;;18.90;40.60;;;;;;5114825;28;20221;-65
2022/01/09 11:33:58;;;;;;;2.08;1.80;;;18.90;40.60;;;;;;5114858;28;20177;-64
2022/01/09 11:36:29;;;;;;;2.10;1.80;;;18.90;40.60;;;;;;5096476;28;20193;-64
2022/01/09 11:39:11;;;;;;;3.08;1.98;;;18.90;40.50;;;;;;5096387;28;20194;-65
2022/01/09 11:41:39;;;;;;;3.80;2.30;;;18.90;40.40;;;;;;5114708;28;20220;-64
2022/01/09 11:44:08;;;;;;;3.63;2.47;;;18.90;40.40;;;;;;5096269;28;20292;-64
2022/01/09 11:46:57;;;;;;;3.17;2.03;;;18.90;40.50;;;;;;5096175;28;20197;-64
2022/01/09 11:49:24;;;;;;;3.20;2.28;;;19.00;40.50;;;;;;5114391;28;20213;-64
2022/01/09 11:51:52;;;;;;;3.97;2.40;;;19.00;40.50;;;;;;5114481;28;20619;-64
2022/01/09 11:54:21;;;;;;;4.00;2.25;;;19.00;40.50;;;;;;5096024;28;20201;-64
2022/01/09 11:57:00;;;;;;;3.08;2.17;;;19.00;40.50;;;;;;5095999;28;20240;-64
2022/01/09 11:59:29;;;;;;;4.50;2.35;;;19.10;40.20;;;;;;5096061;28;20280;-65
2022/01/09 12:01:58;;;;;;;3.47;2.28;;;19.20;40.30;;;;;;5114415;28;20285;-64
2022/01/09 12:04:52;;;;;;;3.55;2.30;;;19.20;40.10;;;;;;5095876;28;20296;-64
2022/01/09 12:07:23;;;;;;;4.25;2.20;;;19.20;40.20;;;;;;5105941;28;20270;-64
2022/01/09 12:09:51;;;;;;;3.78;2.25;;;19.20;40.10;;;;;;5094951;28;20266;-64
2022/01/09 12:12:19;;;;;;;3.47;2.20;;;19.30;40.30;;;;;;5113990;28;20189;-65
2022/01/09 12:15:04;;;;;;;4.90;2.72;;;19.30;40.20;;;;;;5113926;28;20724;-65
2022/01/09 12:17:43;;;;;;;3.90;2.40;;;19.30;42.40;;;;;;5095755;28;20217;-64
2022/01/09 12:20:23;;;;;;;4.68;2.30;;;19.30;45.20;;;;;;5114006;28;20217;-65
2022/01/09 12:23:09;;;;;;;4.20;2.28;;;19.40;45.00;;;;;;5114251;28;20189;-64
2022/01/09 12:25:54;;;;;;;3.05;2.17;;;19.40;42.50;;;;;;5095385;28;20248;-64
2022/01/09 12:28:24;;;;;;;4.78;2.40;;;19.40;42.20;;;;;;5113758;28;20587;-65
2022/01/09 12:30:57;;;;;;;4.80;2.15;;;19.50;41.50;;;;;;5113789;28;20312;-65
2022/01/09 12:33:49;;;;;;;3.38;2.13;;;19.40;40.80;;;;;;5095512;28;20733;-65
2022/01/09 12:36:31;;;;;;;3.03;2.17;;;19.50;41.10;;;;;;5095530;28;20197;-65
2022/01/09 12:38:59;;;;;;;2.78;2.10;;;19.40;41.40;;;;;;5095444;28;20575;-64
2022/01/09 12:41:29;;;;;;;3.17;1.98;;;19.50;40.80;;;;;;5113519;28;20762;-65
2022/01/09 12:44:00;;;;;;;4.22;2.30;;;19.40;40.60;;;;;;5095748;28;20181;-64
2022/01/09 12:46:28;;;;;;;3.85;2.50;;;19.40;40.70;;;;;;5113647;28;20266;-64
2022/01/09 12:48:56;;;;;;;2.42;2.00;;;19.40;40.50;;;;;;5113868;28;20202;-64
2022/01/09 12:51:23;;;;;;;2.65;2.00;;;19.40;40.80;;;;;;5113534;28;20309;-64
2022/01/09 12:53:51;;;;;;;2.45;1.90;;;19.40;40.50;;;;;;5113399;28;20205;-64
2022/01/09 12:56:18;;;;;;;3.25;2.10;;;19.40;40.30;;;;;;5095024;28;20215;-64
2022/01/09 12:58:49;;;;;;;2.38;2.00;;;19.40;40.60;;;;;;5113332;28;20204;-65